Time;durP1;ratioP1;P1;durP2;ratioP2;P2;SDS_P1;SDS_P2;PMS_P1;PMS_P2;Temp;Humidity;BMP_temperature;BMP_pressure;BME280_temperature;BME280_humidity;BME280_pressure;Samples;Min_cycle;Max_cycle;Signal;HPM_P1;HPM_P2
2022/01/31 00:00:42;;;;;;;113.90;84.43;;;;;;;25.08;35.57;102699.44;5035799;28;20112;-42
2022/01/31 00:03:11;;;;;;;122.70;86.20;;;;;;;25.08;35.67;102691.56;5052685;28;20071;-42
2022/01/31 00:05:38;;;;;;;117.65;82.63;;;;;;;25.03;35.51;102694.91;5052880;28;20059;-42
2022/01/31 00:08:07;;;;;;;114.70;84.55;;;;;;;25.05;35.38;102694.06;5035261;28;20095;-42
2022/01/31 00:10:36;;;;;;;113.80;83.15;;;;;;;25.06;35.36;102701.09;5035482;28;20036;-41
2022/01/31 00:13:08;;;;;;;111.47;82.97;;;;;;;25.03;35.57;102692.28;5052692;28;20025;-42
2022/01/31 00:15:40;;;;;;;115.07;83.20;;;;;;;24.97;35.54;102694.69;5052677;28;20033;-41
2022/01/31 00:18:08;;;;;;;119.63;81.95;;;;;;;25.03;35.59;102699.28;5035771;28;20033;-42
2022/01/31 00:20:36;;;;;;;122.95;85.88;;;;;;;25.04;35.61;102701.06;5035095;28;20392;-42
2022/01/31 00:23:04;;;;;;;117.32;83.43;;;;;;;25.03;35.75;102700.16;5052680;28;20050;-41
2022/01/31 00:25:33;;;;;;;119.80;85.90;;;;;;;25.00;35.45;102707.91;5052341;28;20064;-43
2022/01/31 00:28:02;;;;;;;117.53;81.93;;;;;;;25.01;35.44;102699.19;5018728;28;20468;-42
2022/01/31 00:30:30;;;;;;;114.63;83.82;;;;;;;25.02;35.65;102708.00;5052905;28;20037;-43
2022/01/31 00:32:59;;;;;;;119.97;84.18;;;;;;;24.99;35.42;102700.88;5052563;28;20037;-43
2022/01/31 00:35:27;;;;;;;118.47;83.43;;;;;;;24.97;35.44;102701.66;5052495;28;20029;-43
2022/01/31 00:37:56;;;;;;;119.97;83.85;;;;;;;24.96;35.57;102686.75;5035181;28;20512;-42
2022/01/31 00:40:24;;;;;;;117.28;83.40;;;;;;;24.98;35.54;102699.13;5052551;28;20392;-42
2022/01/31 00:42:53;;;;;;;123.53;87.55;;;;;;;24.95;35.40;102687.59;5052467;28;20040;-42
2022/01/31 00:45:27;;;;;;;124.63;86.88;;;;;;;24.94;35.49;102694.59;5056283;28;20025;-41
2022/01/31 00:48:02;;;;;;;122.90;86.90;;;;;;;24.97;35.75;102691.16;5056643;28;20037;-42
2022/01/31 00:50:36;;;;;;;118.72;83.00;;;;;;;24.99;35.09;102687.75;5056573;28;20051;-42
2022/01/31 00:53:05;;;;;;;117.45;84.45;;;;;;;24.96;35.62;102692.91;5039936;28;20059;-41
2022/01/31 00:55:34;;;;;;;130.05;88.95;;;;;;;24.92;35.54;102680.50;5056664;28;20033;-43
2022/01/31 00:58:02;;;;;;;122.13;86.15;;;;;;;24.92;35.73;102662.13;5056222;28;20025;-42
2022/01/31 01:00:31;;;;;;;123.13;87.45;;;;;;;24.87;35.43;102645.31;5056219;28;20115;-41
2022/01/31 01:02:59;;;;;;;126.20;86.88;;;;;;;24.67;35.46;102598.22;5056080;28;20033;-41
2022/01/31 01:05:27;;;;;;;116.22;85.38;;;;;;;24.88;35.80;102626.09;5056240;28;20020;-41
2022/01/31 01:07:55;;;;;;;122.68;84.90;;;;;;;24.88;35.64;102620.84;5055910;28;20029;-43
2022/01/31 01:10:24;;;;;;;109.75;83.78;;;;;;;24.84;35.60;102611.06;5056263;28;20032;-43
2022/01/31 01:12:54;;;;;;;128.57;88.50;;;;;;;24.84;35.66;102609.34;5056247;28;20372;-43
2022/01/31 01:15:22;;;;;;;124.60;88.28;;;;;;;24.87;35.49;102613.81;5055759;28;20108;-43
2022/01/31 01:17:51;;;;;;;124.40;85.50;;;;;;;24.84;35.50;102603.19;5037889;28;20029;-41
2022/01/31 01:20:19;;;;;;;118.18;83.43;;;;;;;24.87;35.50;102608.56;5055669;28;20060;-41
2022/01/31 01:22:48;;;;;;;122.53;86.07;;;;;;;24.84;35.70;102606.72;5056000;28;20102;-41
2022/01/31 01:25:17;;;;;;;120.68;87.28;;;;;;;24.84;35.40;102598.84;5055814;28;20044;-42
2022/01/31 01:27:49;;;;;;;125.03;87.93;;;;;;;24.82;35.43;102587.41;5055585;28;20051;-42
2022/01/31 01:30:18;;;;;;;119.13;85.82;;;;;;;24.87;35.67;102583.22;5056292;28;20029;-42
2022/01/31 01:32:59;;;;;;;122.15;89.40;;;;;;;24.84;35.73;102583.09;5055456;28;20029;-41
2022/01/31 01:35:32;;;;;;;121.30;87.18;;;;;;;24.85;35.76;102583.97;5055776;28;20024;-42
2022/01/31 01:38:05;;;;;;;117.65;86.38;;;;;;;24.83;35.79;102577.78;5055249;28;20405;-43
2022/01/31 01:40:40;;;;;;;125.53;86.03;;;;;;;24.84;35.55;102584.81;5055483;28;20127;-41
2022/01/31 01:43:09;;;;;;;128.63;90.30;;;;;;;24.85;35.31;102583.97;5055067;28;20060;-44
2022/01/31 01:45:37;;;;;;;120.22;85.65;;;;;;;24.81;35.65;102582.13;5055600;28;20067;-42
2022/01/31 01:48:07;;;;;;;121.30;87.30;;;;;;;24.75;35.59;102577.53;5054849;28;20089;-42
2022/01/31 01:50:37;;;;;;;119.45;86.95;;;;;;;24.74;35.83;102578.34;5037885;28;20029;-42
2022/01/31 01:53:06;;;;;;;122.22;86.72;;;;;;;24.80;35.43;102585.56;5055239;28;20036;-42
2022/01/31 01:55:35;;;;;;;121.50;86.15;;;;;;;24.72;35.89;102580.06;5055309;28;20025;-42
2022/01/31 01:58:05;;;;;;;123.97;85.10;;;;;;;24.73;35.54;102577.47;5054534;28;20373;-42
2022/01/31 02:00:49;;;;;;;114.95;83.75;;;;;;;24.70;35.48;102589.59;5055079;28;20215;-42
2022/01/31 02:03:22;;;;;;;116.25;82.25;;;;;;;24.72;35.35;102586.19;5039688;28;20032;-43
2022/01/31 02:05:50;;;;;;;117.00;83.93;;;;;;;24.73;35.61;102580.09;5037130;28;20120;-42
2022/01/31 02:08:19;;;;;;;121.63;83.32;;;;;;;24.71;35.59;102587.03;5054792;28;20660;-42
2022/01/31 02:10:48;;;;;;;126.25;89.25;;;;;;;24.70;35.38;102598.34;5055081;28;20365;-42
2022/01/31 02:13:17;;;;;;;134.85;90.03;;;;;;;24.68;35.42;102607.88;5037082;28;20059;-42
2022/01/31 02:15:47;;;;;;;120.00;86.25;;;;;;;24.71;35.44;102613.25;5054873;28;20526;-41
2022/01/31 02:18:15;;;;;;;120.78;89.05;;;;;;;24.68;35.43;102615.75;5054844;28;20083;-42
2022/01/31 02:20:44;;;;;;;126.78;89.75;;;;;;;24.70;35.71;102606.22;5054729;28;20028;-42
2022/01/31 02:23:17;;;;;;;127.60;91.03;;;;;;;24.64;35.86;102606.00;5036994;28;20561;-42
2022/01/31 02:26:05;;;;;;;128.73;91.18;;;;;;;24.75;35.41;102611.63;5054784;28;20104;-43
2022/01/31 02:28:35;;;;;;;126.63;89.30;;;;;;;24.74;35.30;102604.59;5055005;28;20123;-41
2022/01/31 02:31:06;;;;;;;129.88;94.03;;;;;;;24.71;35.49;102594.91;5055097;28;20104;-41
2022/01/31 02:33:35;;;;;;;129.23;89.03;;;;;;;24.70;35.48;102606.22;5054421;28;20033;-42
2022/01/31 02:36:05;;;;;;;128.20;89.45;;;;;;;24.68;35.49;102613.13;5054280;28;20032;-41
2022/01/31 02:38:34;;;;;;;129.98;92.78;;;;;;;24.64;35.66;102599.84;5054685;28;20033;-42
2022/01/31 02:41:02;;;;;;;125.40;89.00;;;;;;;24.67;35.51;102592.97;5036833;28;20025;-42
2022/01/31 02:43:33;;;;;;;134.13;93.38;;;;;;;24.68;35.68;102612.25;5054260;28;20025;-42
2022/01/31 02:46:02;;;;;;;132.35;94.03;;;;;;;24.68;35.51;102597.38;5036539;28;20029;-43
2022/01/31 02:48:34;;;;;;;133.35;95.30;;;;;;;24.66;35.66;102595.53;5053899;28;20028;-41
2022/01/31 02:51:08;;;;;;;133.30;95.07;;;;;;;24.61;35.42;102604.97;5054218;28;20033;-41
2022/01/31 02:53:41;;;;;;;135.48;91.93;;;;;;;24.62;35.83;102605.03;5037381;28;20033;-41
2022/01/31 02:56:10;;;;;;;131.25;93.47;;;;;;;24.62;35.75;102601.50;5054107;28;20037;-41
2022/01/31 02:58:38;;;;;;;137.93;96.57;;;;;;;24.62;35.73;102588.38;5053748;28;20056;-42
2022/01/31 03:01:07;;;;;;;131.93;91.80;;;;;;;24.63;35.55;102587.56;5053844;28;20061;-42
2022/01/31 03:03:35;;;;;;;128.63;93.70;;;;;;;24.64;35.76;102585.00;5053318;28;20391;-42
2022/01/31 03:06:04;;;;;;;136.80;95.97;;;;;;;24.52;35.58;102580.19;5053207;28;20029;-41
2022/01/31 03:08:32;;;;;;;135.30;94.80;;;;;;;24.65;35.50;102599.91;5053523;28;20029;-44
2022/01/31 03:11:01;;;;;;;135.80;94.13;;;;;;;24.63;35.52;102595.44;5053614;28;20039;-41
2022/01/31 03:13:29;;;;;;;141.38;97.60;;;;;;;24.60;35.69;102588.34;5036066;28;20056;-41
2022/01/31 03:15:58;;;;;;;135.43;95.40;;;;;;;24.59;35.51;102597.06;5054066;28;20059;-41
2022/01/31 03:18:27;;;;;;;136.65;97.43;;;;;;;24.53;35.70;102563.63;5053772;28;20024;-41
2022/01/31 03:20:55;;;;;;;136.95;96.88;;;;;;;24.58;35.66;102590.00;5053963;28;20021;-41
2022/01/31 03:23:24;;;;;;;139.23;97.40;;;;;;;24.57;35.63;102586.47;5053514;28;20036;-42
2022/01/31 03:25:52;;;;;;;139.35;99.43;;;;;;;24.55;35.49;102595.16;5035958;28;20432;-42
2022/01/31 03:28:21;;;;;;;139.38;101.57;;;;;;;24.52;35.71;102592.41;5053982;28;20032;-41
2022/01/31 03:30:51;;;;;;;139.90;96.18;;;;;;;24.53;35.60;102608.22;5053355;28;20028;-42
2022/01/31 03:33:20;;;;;;;133.95;99.47;;;;;;;24.56;35.55;102605.72;5053289;28;20037;-41
2022/01/31 03:35:48;;;;;;;135.82;94.30;;;;;;;24.52;35.71;102613.41;5035589;28;20391;-42
2022/01/31 03:38:17;;;;;;;133.25;94.70;;;;;;;24.51;35.72;102627.34;5052879;28;20054;-41
2022/01/31 03:40:45;;;;;;;133.40;95.30;;;;;;;24.53;35.45;102623.06;5034799;28;20027;-42
2022/01/31 03:43:14;;;;;;;131.20;94.43;;;;;;;24.52;35.89;102630.03;5053225;28;20033;-42
2022/01/31 03:45:42;;;;;;;130.00;94.82;;;;;;;24.47;35.70;102631.59;5053240;28;20064;-42
2022/01/31 03:48:11;;;;;;;128.40;93.55;;;;;;;24.48;36.02;102629.88;5052709;28;20464;-42
2022/01/31 03:50:40;;;;;;;141.38;97.75;;;;;;;24.47;35.99;102636.84;5052860;28;20071;-41
2022/01/31 03:53:07;;;;;;;133.85;96.60;;;;;;;24.45;36.09;102633.25;5052868;28;20547;-42
2022/01/31 03:55:36;;;;;;;136.32;94.65;;;;;;;24.39;36.02;102626.06;5053158;28;20060;-41
2022/01/31 03:58:04;;;;;;;139.90;96.47;;;;;;;24.45;36.03;102629.75;5053192;28;20059;-41
2022/01/31 04:00:33;;;;;;;139.70;96.43;;;;;;;24.37;35.94;102614.63;5052961;28;20032;-41
2022/01/31 04:03:01;;;;;;;138.27;96.95;;;;;;;24.48;35.65;102624.63;5019216;28;20189;-41
2022/01/31 04:05:31;;;;;;;135.07;93.65;;;;;;;24.40;35.97;102626.97;5053033;28;20029;-41
2022/01/31 04:07:59;;;;;;;138.48;94.82;;;;;;;24.46;35.55;102626.31;5052517;28;20088;-41
2022/01/31 04:10:28;;;;;;;138.50;95.78;;;;;;;24.45;35.88;102633.25;5053067;28;20084;-41
2022/01/31 04:12:57;;;;;;;137.70;94.25;;;;;;;24.45;35.99;102640.25;5035410;28;20044;-41
2022/01/31 04:15:24;;;;;;;142.70;96.90;;;;;;;24.44;35.64;102639.34;5053084;28;20079;-41
2022/01/31 04:17:53;;;;;;;132.95;93.03;;;;;;;24.41;35.68;102640.13;5052924;28;20047;-42
2022/01/31 04:20:21;;;;;;;129.63;93.30;;;;;;;24.42;35.53;102641.00;5057002;28;20460;-42
2022/01/31 04:22:56;;;;;;;138.98;94.47;;;;;;;24.41;36.06;102644.47;5039734;28;20049;-41
2022/01/31 04:28:38;;;;;;;;;;;;;;;24.60;35.66;102638.19;5049837;28;20019;-41
2022/01/31 04:31:00;;;;;;;129.68;90.97;;;;;;;24.51;35.34;102637.84;5056395;28;19912;-41
2022/01/31 04:33:30;;;;;;;138.20;97.63;;;;;;;24.46;35.62;102642.03;5057406;28;20368;-41
2022/01/31 04:35:59;;;;;;;131.23;95.28;;;;;;;24.42;35.68;102646.25;5056896;28;20025;-41
2022/01/31 04:38:27;;;;;;;132.07;94.90;;;;;;;24.42;35.89;102644.53;5055989;28;20387;-41
2022/01/31 04:40:56;;;;;;;133.93;93.45;;;;;;;24.40;35.67;102632.22;5056726;28;20090;-42
2022/01/31 04:43:23;;;;;;;135.10;95.15;;;;;;;24.30;35.89;102625.72;5056423;28;20029;-42
2022/01/31 04:45:53;;;;;;;131.70;93.70;;;;;;;24.39;35.63;102638.31;5056987;28;20025;-42
2022/01/31 04:48:22;;;;;;;137.40;94.50;;;;;;;24.37;35.54;102632.97;5057096;28;20064;-42
2022/01/31 04:50:51;;;;;;;132.32;92.95;;;;;;;24.36;35.82;102638.19;5056681;28;20487;-42
2022/01/31 04:53:19;;;;;;;135.60;92.82;;;;;;;24.37;35.59;102642.59;5056785;28;20471;-43
2022/01/31 04:55:48;;;;;;;124.93;89.50;;;;;;;24.34;35.82;102643.34;5038557;28;20063;-43
2022/01/31 04:58:16;;;;;;;123.22;87.57;;;;;;;24.32;35.67;102644.13;5038936;28;20088;-42
2022/01/31 05:00:44;;;;;;;135.48;94.38;;;;;;;24.22;35.94;102643.78;5056202;28;20155;-42
2022/01/31 05:03:15;;;;;;;140.85;96.00;;;;;;;24.19;36.03;102651.53;5055893;28;20411;-42
2022/01/31 05:05:44;;;;;;;136.48;92.82;;;;;;;24.24;36.17;102639.47;5055702;28;20083;-43
2022/01/31 05:08:12;;;;;;;131.73;91.25;;;;;;;24.19;35.74;102642.75;5038630;28;20041;-43
2022/01/31 05:10:47;;;;;;;131.10;93.07;;;;;;;24.16;36.05;102637.44;5055851;28;20043;-42
2022/01/31 05:13:16;;;;;;;135.43;92.22;;;;;;;24.17;35.99;102633.94;5056012;28;20029;-42
2022/01/31 05:15:44;;;;;;;133.98;92.95;;;;;;;24.07;35.89;102635.34;5055958;28;20044;-44
2022/01/31 05:18:14;;;;;;;131.48;90.47;;;;;;;24.10;36.26;102628.47;5038326;28;20060;-43
2022/01/31 05:20:44;;;;;;;126.35;87.95;;;;;;;24.09;36.10;102626.69;5056176;28;20033;-42
2022/01/31 05:23:12;;;;;;;134.65;94.05;;;;;;;24.10;36.06;102636.34;5055754;28;20088;-42
2022/01/31 05:25:41;;;;;;;126.75;91.95;;;;;;;24.14;35.82;102645.22;5055958;28;20035;-42
2022/01/31 05:28:09;;;;;;;125.05;90.65;;;;;;;24.14;36.13;102642.59;5037439;28;20037;-42
2022/01/31 05:30:38;;;;;;;129.18;91.47;;;;;;;24.15;36.04;102641.75;5055090;28;20029;-42
2022/01/31 05:33:07;;;;;;;126.78;92.38;;;;;;;24.14;35.85;102646.97;5055353;28;20439;-42
2022/01/31 05:35:35;;;;;;;131.48;89.00;;;;;;;24.19;35.63;102656.78;5055319;28;20039;-42
2022/01/31 05:38:04;;;;;;;129.73;91.00;;;;;;;24.16;35.99;102653.16;5055338;28;20053;-41
2022/01/31 05:40:33;;;;;;;132.25;92.20;;;;;;;24.17;36.05;102654.91;5055707;28;20103;-42
2022/01/31 05:43:01;;;;;;;132.60;92.57;;;;;;;24.18;36.09;102667.19;5055411;28;20032;-41
2022/01/31 05:45:30;;;;;;;128.70;92.22;;;;;;;24.21;35.93;102675.19;5055508;28;20025;-41
2022/01/31 05:47:59;;;;;;;132.40;90.15;;;;;;;24.21;35.92;102683.06;5037643;28;20041;-41
2022/01/31 05:50:28;;;;;;;134.70;93.80;;;;;;;24.19;35.83;102684.72;5054926;28;20021;-41
2022/01/31 05:52:57;;;;;;;134.52;95.38;;;;;;;24.18;35.56;102689.09;5055280;28;20037;-41
2022/01/31 05:55:25;;;;;;;129.48;90.32;;;;;;;24.16;35.60;102682.00;5055173;28;20032;-44
2022/01/31 05:57:54;;;;;;;129.82;90.15;;;;;;;24.20;35.46;102702.25;5037870;28;20391;-42
2022/01/31 06:00:22;;;;;;;127.90;92.68;;;;;;;24.18;35.80;102701.28;5054773;28;20036;-42
2022/01/31 06:02:58;;;;;;;140.77;96.28;;;;;;;24.18;36.04;102709.16;5055121;28;20464;-43
2022/01/31 06:05:28;;;;;;;136.27;96.70;;;;;;;24.04;35.46;102677.16;5055494;28;20028;-43
2022/01/31 06:07:56;;;;;;;138.25;95.18;;;;;;;24.15;35.56;102703.81;5055117;28;20124;-42
2022/01/31 06:10:24;;;;;;;132.65;94.20;;;;;;;24.18;35.74;102712.69;5037212;28;20070;-42
2022/01/31 06:12:52;;;;;;;142.75;97.15;;;;;;;24.19;35.48;102716.19;5037028;28;20029;-41
2022/01/31 06:15:21;;;;;;;136.40;95.13;;;;;;;24.21;35.42;102709.28;5054663;28;20048;-43
2022/01/31 06:17:50;;;;;;;132.05;94.90;;;;;;;24.22;35.85;102706.72;5054586;28;20017;-42
2022/01/31 06:20:18;;;;;;;139.90;96.57;;;;;;;24.22;35.89;102704.09;5054816;28;20116;-42
2022/01/31 06:22:50;;;;;;;128.00;92.63;;;;;;;24.22;35.38;102706.72;5054841;28;20499;-44
2022/01/31 06:25:20;;;;;;;137.15;94.57;;;;;;;24.19;35.81;102706.59;5054930;28;20029;-42
2022/01/31 06:27:50;;;;;;;142.93;99.68;;;;;;;24.26;35.73;102712.97;5054162;28;20031;-43
2022/01/31 06:30:18;;;;;;;131.48;95.90;;;;;;;24.26;35.60;102710.38;5054663;28;20047;-42
2022/01/31 06:32:47;;;;;;;138.00;97.18;;;;;;;24.22;35.95;102704.09;5036918;28;20095;-41
2022/01/31 06:35:15;;;;;;;135.95;94.65;;;;;;;24.28;35.64;102708.69;5054698;28;20024;-41
2022/01/31 06:37:44;;;;;;;138.02;97.50;;;;;;;24.26;35.80;102694.63;5054669;28;20511;-42
2022/01/31 06:40:12;;;;;;;138.27;95.05;;;;;;;24.31;35.28;102700.97;5053945;28;20029;-42
2022/01/31 06:42:41;;;;;;;137.25;95.50;;;;;;;24.28;35.36;102703.44;5036036;28;20032;-42
2022/01/31 06:45:10;;;;;;;133.95;93.85;;;;;;;24.23;35.75;102702.38;5054526;28;20028;-41
2022/01/31 06:47:38;;;;;;;143.25;96.88;;;;;;;24.31;35.49;102716.69;5036789;28;20035;-42
2022/01/31 06:50:09;;;;;;;134.45;97.97;;;;;;;24.30;35.50;102725.41;5053990;28;20086;-42
2022/01/31 06:52:38;;;;;;;144.68;100.35;;;;;;;24.24;35.74;102733.88;5054247;28;20107;-41
2022/01/31 06:55:08;;;;;;;140.30;98.95;;;;;;;24.24;35.89;102733.88;5054466;28;20104;-41
2022/01/31 06:57:37;;;;;;;149.85;101.03;;;;;;;24.25;35.99;102730.44;5036879;28;20025;-41
2022/01/31 07:00:07;;;;;;;144.38;100.55;;;;;;;24.27;35.61;102730.50;5054132;28;20527;-42
2022/01/31 07:02:36;;;;;;;148.77;102.45;;;;;;;24.22;35.76;102729.44;5019222;28;20075;-41
2022/01/31 07:05:06;;;;;;;146.23;102.00;;;;;;;24.32;35.52;102741.19;5054215;28;20047;-42
2022/01/31 07:07:35;;;;;;;147.38;103.40;;;;;;;24.30;35.56;102725.41;5053918;28;20040;-41
2022/01/31 07:10:04;;;;;;;152.55;105.53;;;;;;;24.22;35.63;102727.72;5053647;28;20048;-41
2022/01/31 07:12:35;;;;;;;141.25;99.80;;;;;;;24.28;36.04;102735.81;5053744;28;20419;-41
2022/01/31 07:15:06;;;;;;;153.68;101.78;;;;;;;24.30;35.49;102743.75;5053374;28;20029;-42
2022/01/31 07:17:35;;;;;;;144.85;100.65;;;;;;;24.24;35.96;102741.75;5053840;28;20021;-42
2022/01/31 07:20:08;;;;;;;154.13;99.90;;;;;;;24.28;35.66;102745.41;5035492;28;20395;-42
2022/01/31 07:22:39;;;;;;;147.00;99.95;;;;;;;24.22;35.92;102732.97;5054100;28;20048;-42
2022/01/31 07:25:20;;;;;;;144.98;98.72;;;;;;;24.21;35.80;102722.38;5053906;28;20105;-43
2022/01/31 07:27:48;;;;;;;143.27;100.25;;;;;;;24.31;35.70;102735.06;5052902;28;20033;-42
2022/01/31 07:30:15;;;;;;;147.07;98.68;;;;;;;24.32;35.58;102733.31;5053522;28;20027;-42
2022/01/31 07:32:42;;;;;;;144.85;97.72;;;;;;;24.33;35.97;102735.09;5053142;28;20025;-41
2022/01/31 07:35:13;;;;;;;136.88;95.85;;;;;;;24.37;35.80;102737.91;5035551;28;20037;-42
2022/01/31 07:37:41;;;;;;;150.43;99.40;;;;;;;24.34;35.71;102734.28;5053157;28;20041;-41
2022/01/31 07:40:09;;;;;;;142.13;97.03;;;;;;;24.32;35.59;102728.97;5053230;28;20429;-42
2022/01/31 07:42:42;;;;;;;144.68;100.50;;;;;;;24.32;35.89;102726.34;5053059;28;20064;-41
2022/01/31 07:45:10;;;;;;;149.95;101.38;;;;;;;24.32;35.93;102721.09;5053353;28;20021;-42
2022/01/31 07:47:39;;;;;;;138.38;98.07;;;;;;;24.35;35.66;102715.94;5053318;28;20032;-42
2022/01/31 07:50:08;;;;;;;135.63;94.47;;;;;;;24.33;35.94;102720.25;5053080;28;20056;-42
2022/01/31 07:52:37;;;;;;;143.77;99.53;;;;;;;24.34;35.79;102716.78;5052605;28;20060;-42
2022/01/31 07:55:06;;;;;;;137.52;96.35;;;;;;;24.34;35.96;102722.03;5053373;28;20021;-41
2022/01/31 07:57:35;;;;;;;142.73;98.97;;;;;;;24.37;35.61;102737.91;5053107;28;20033;-42
2022/01/31 08:00:05;;;;;;;137.60;97.43;;;;;;;24.34;35.61;102742.13;5053064;28;20035;-42
2022/01/31 08:02:33;;;;;;;147.20;97.72;;;;;;;24.37;35.97;102739.63;5052883;28;20025;-42
2022/01/31 08:05:02;;;;;;;150.40;102.78;;;;;;;24.36;35.80;102749.22;5052514;28;20435;-42
2022/01/31 08:07:31;;;;;;;145.93;100.82;;;;;;;24.34;35.82;102740.41;5053097;28;20100;-42
2022/01/31 08:10:01;;;;;;;150.48;101.40;;;;;;;24.37;35.86;102753.63;5034970;28;20032;-42
2022/01/31 08:12:30;;;;;;;146.38;100.13;;;;;;;24.41;35.51;102758.19;5035264;28;20092;-42
2022/01/31 08:15:03;;;;;;;140.15;100.00;;;;;;;24.36;35.72;102749.22;5052840;28;20025;-42
2022/01/31 08:17:32;;;;;;;143.57;100.80;;;;;;;24.42;35.99;102766.94;5035341;28;20024;-45
2022/01/31 08:20:01;;;;;;;144.63;98.28;;;;;;;24.39;35.47;102774.69;5052346;28;20049;-42
2022/01/31 08:22:30;;;;;;;145.40;100.47;;;;;;;24.40;35.83;102782.63;5034853;28;20050;-42
2022/01/31 08:24:59;;;;;;;138.25;98.43;;;;;;;24.43;35.96;102781.84;5053498;28;20074;-42
2022/01/31 08:27:27;;;;;;;147.05;101.20;;;;;;;24.43;35.42;102788.00;5018356;28;20480;-42
2022/01/31 08:30:06;;;;;;;145.00;97.93;;;;;;;24.35;35.46;102768.41;5051836;28;20125;-42
2022/01/31 08:32:43;;;;;;;138.32;97.07;;;;;;;24.45;35.44;102788.03;5036924;28;20033;-42
2022/01/31 08:35:53;;;;;;;149.13;100.55;;;;;;;24.47;35.76;102796.00;5051713;28;20124;-42
2022/01/31 08:38:00;;;;;;;142.98;101.47;;;;;;;24.40;35.59;102793.09;5046165;28;20124;-42
2022/01/31 08:40:29;;;;;;;142.60;100.80;;;;;;;24.40;35.79;102800.97;5052896;28;20094;-44
2022/01/31 08:42:58;;;;;;;153.45;102.22;;;;;;;24.37;35.96;102795.59;5052641;28;20128;-43
2022/01/31 08:45:26;;;;;;;143.05;100.63;;;;;;;24.39;35.69;102803.56;5052754;28;20025;-42
2022/01/31 08:47:54;;;;;;;150.70;100.40;;;;;;;24.38;36.03;102812.25;5052540;28;20028;-43
2022/01/31 08:50:23;;;;;;;152.93;104.10;;;;;;;24.38;35.59;102805.25;5052274;28;20021;-43
2022/01/31 08:52:52;;;;;;;148.15;101.60;;;;;;;24.37;35.66;102794.72;5052488;28;20373;-42
2022/01/31 08:55:20;;;;;;;151.13;103.93;;;;;;;24.42;35.51;102799.31;5051794;28;20389;-44
2022/01/31 08:57:53;;;;;;;143.80;99.47;;;;;;;24.42;35.64;102809.81;5052194;28;20029;-42
2022/01/31 09:00:22;;;;;;;142.80;102.88;;;;;;;24.40;35.91;102805.34;5051869;28;20036;-42
2022/01/31 09:03:02;;;;;;;145.45;104.03;;;;;;;24.41;35.61;102810.63;5052233;28;20056;-42
2022/01/31 09:05:31;;;;;;;157.73;107.72;;;;;;;24.40;35.65;102808.84;5054970;28;20064;-42
2022/01/31 09:08:00;;;;;;;150.63;102.22;;;;;;;24.42;35.88;102815.06;5038452;28;20032;-42
2022/01/31 09:10:29;;;;;;;151.23;103.25;;;;;;;24.43;35.87;102822.09;5055595;28;20033;-43
2022/01/31 09:12:58;;;;;;;154.27;103.10;;;;;;;24.37;35.53;102805.22;5056263;28;20013;-42
2022/01/31 09:15:26;;;;;;;152.13;104.75;;;;;;;24.40;35.42;102824.59;5056040;28;20035;-42
2022/01/31 09:17:55;;;;;;;149.95;106.07;;;;;;;24.40;35.86;102829.84;5055963;28;20423;-43
2022/01/31 09:20:24;;;;;;;152.27;105.65;;;;;;;24.26;35.91;102823.13;5056064;28;20454;-42
2022/01/31 09:22:52;;;;;;;156.07;106.75;;;;;;;24.33;35.60;102834.78;5055358;28;20036;-41
2022/01/31 09:25:21;;;;;;;147.05;103.68;;;;;;;24.40;35.79;102844.69;5055308;28;20024;-41
2022/01/31 09:27:50;;;;;;;144.75;104.07;;;;;;;24.37;35.40;102848.06;5055674;28;20379;-44
2022/01/31 09:30:21;;;;;;;143.55;103.18;;;;;;;24.39;35.76;102846.41;5055798;28;20365;-42
2022/01/31 09:32:50;;;;;;;142.05;99.50;;;;;;;24.35;36.07;102856.72;5055586;28;20384;-42
2022/01/31 09:35:18;;;;;;;156.27;107.43;;;;;;;24.41;35.85;102856.94;5055690;28;20036;-42
2022/01/31 09:37:48;;;;;;;149.55;102.70;;;;;;;24.46;35.68;102859.78;5037556;28;20099;-43
2022/01/31 09:40:20;;;;;;;152.02;103.80;;;;;;;24.53;35.71;102865.34;5055700;28;20040;-42
2022/01/31 09:46:04;;;;;;;152.18;103.15;;;;;;;24.70;34.91;102868.66;5052025;28;20033;-42
2022/01/31 09:48:33;;;;;;;147.95;102.57;;;;;;;24.68;35.37;102864.16;5055346;28;20037;-42
2022/01/31 09:51:06;;;;;;;145.23;100.53;;;;;;;24.69;35.31;102845.84;5054892;28;20090;-42
2022/01/31 09:53:38;;;;;;;145.32;101.50;;;;;;;24.79;35.04;102851.50;5055472;28;20074;-42
2022/01/31 09:56:09;;;;;;;161.85;107.82;;;;;;;24.92;34.97;102856.41;5055408;28;20442;-43
2022/01/31 09:58:38;;;;;;;154.88;103.55;;;;;;;24.80;34.98;102846.31;5055317;28;20029;-42
2022/01/31 10:01:10;;;;;;;150.23;102.57;;;;;;;24.81;35.14;102847.22;5054868;28;20052;-42
2022/01/31 10:03:48;;;;;;;150.10;103.30;;;;;;;24.85;34.92;102860.53;5037498;28;20036;-42
2022/01/31 10:06:24;;;;;;;154.32;105.00;;;;;;;24.86;34.90;102864.03;5055572;28;20021;-42
2022/01/31 10:09:13;;;;;;;158.18;103.80;;;;;;;24.97;34.82;102874.94;5055065;28;20121;-43
2022/01/31 10:11:50;;;;;;;158.27;106.72;;;;;;;25.01;34.56;102871.63;5055056;28;20021;-40
2022/01/31 10:17:29;;;;;;;148.43;104.18;;;;;;;25.01;34.69;102869.88;5045959;28;20391;-41
2022/01/31 10:20:00;;;;;;;149.80;106.20;;;;;;;24.95;34.71;102867.03;5055147;28;20029;-41
2022/01/31 10:22:32;;;;;;;145.13;101.97;;;;;;;25.03;34.65;102869.94;5054617;28;20021;-41
2022/01/31 10:25:02;;;;;;;154.02;106.70;;;;;;;25.12;34.34;102883.41;5054433;28;20119;-41
2022/01/31 10:27:34;;;;;;;154.27;105.55;;;;;;;25.05;34.58;102870.00;5036676;28;20125;-41
2022/01/31 10:30:14;;;;;;;153.02;104.55;;;;;;;25.06;34.31;102869.16;5054434;28;20024;-41
2022/01/31 10:32:45;;;;;;;149.25;105.65;;;;;;;25.06;34.50;102862.19;5054565;28;20025;-41
2022/01/31 10:35:18;;;;;;;154.50;104.63;;;;;;;24.96;34.88;102871.44;5036839;28;20553;-41
2022/01/31 10:37:48;;;;;;;145.82;98.88;;;;;;;24.84;34.80;102874.47;5054554;28;20543;-42
2022/01/31 10:45:54;;;;;;;145.82;102.78;;;;;;;25.22;34.22;102889.94;5054628;28;20036;-41
2022/01/31 10:53:52;;;;;;;138.23;95.03;;;;;;;24.93;34.83;102909.78;5054354;28;20115;-41
2022/01/31 10:56:21;;;;;;;137.82;94.93;;;;;;;24.99;34.55;102903.03;5053951;28;20120;-41
2022/01/31 10:59:03;;;;;;;146.75;99.13;;;;;;;24.93;34.68;102905.44;5053889;28;20040;-41
2022/01/31 11:01:32;;;;;;;150.30;103.80;;;;;;;25.00;34.69;102904.84;5054354;28;20122;-42
2022/01/31 11:04:04;;;;;;;138.85;96.15;;;;;;;25.03;34.54;102918.09;5035575;28;20029;-41
2022/01/31 11:06:34;;;;;;;147.93;100.38;;;;;;;24.95;34.84;102926.50;5053919;28;20048;-43
2022/01/31 11:09:07;;;;;;;146.45;101.63;;;;;;;24.95;34.45;102923.88;5053787;28;20068;-41
2022/01/31 11:11:40;;;;;;;142.35;98.80;;;;;;;25.03;34.48;102928.59;5053641;28;20086;-41
2022/01/31 11:14:10;;;;;;;147.57;97.70;;;;;;;25.09;34.09;102927.06;5053448;28;20104;-41
2022/01/31 11:16:40;;;;;;;137.35;93.43;;;;;;;25.08;34.15;102928.78;5053876;28;20029;-42
2022/01/31 11:19:11;;;;;;;131.07;87.25;;;;;;;25.14;34.32;102938.66;5053530;28;20025;-41
2022/01/31 11:21:44;;;;;;;124.03;85.07;;;;;;;25.22;33.89;102934.56;5053857;28;20033;-42
2022/01/31 11:24:18;;;;;;;124.35;82.03;;;;;;;25.16;33.74;102921.19;5036376;28;20472;-44
2022/01/31 11:27:17;;;;;;;118.40;79.47;;;;;;;25.18;33.86;102938.81;5053287;28;20041;-41
2022/01/31 11:29:48;;;;;;;108.78;75.60;;;;;;;25.06;34.10;102924.31;5053516;28;20060;-42
2022/01/31 11:32:17;;;;;;;99.40;68.00;;;;;;;24.96;33.93;102913.44;5053301;28;20396;-42